Time;durP1;ratioP1;P1;durP2;ratioP2;P2;SDS_P1;SDS_P2;PMS_P1;PMS_P2;Temp;Humidity;BMP_temperature;BMP_pressure;BME280_temperature;BME280_humidity;BME280_pressure;Samples;Min_cycle;Max_cycle;Signal;HPM_P1;HPM_P2
2024/04/18 00:01:15;;;;;;;7.10;4.90;;;;;;;9.85;73.85;97993.08;107223;1258;60110;-38
2024/04/18 00:03:43;;;;;;;8.30;5.80;;;;;;;9.81;74.09;97982.10;107243;1262;60349;-38
2024/04/18 00:06:11;;;;;;;7.40;5.00;;;;;;;9.75;74.35;97980.23;107216;1260;74698;-38
2024/04/18 00:08:39;;;;;;;7.50;5.30;;;;;;;9.66;74.42;97975.36;107120;1260;67627;-38
2024/04/18 00:11:24;;;;;;;7.50;5.10;;;;;;;9.64;74.45;97976.91;107166;1259;71433;-38
2024/04/18 00:13:52;;;;;;;8.90;5.40;;;;;;;9.65;74.65;97970.04;107087;1263;61382;-38
2024/04/18 00:16:35;;;;;;;9.60;5.50;;;;;;;9.62;74.95;97961.46;107159;1258;61307;-38
2024/04/18 00:19:15;;;;;;;7.60;4.40;;;;;;;9.59;75.05;97962.14;107170;1258;74648;-38
2024/04/18 00:21:58;;;;;;;7.90;5.10;;;;;;;9.57;75.06;97968.41;107191;1263;66480;-37
2024/04/18 00:24:29;;;;;;;6.40;5.20;;;;;;;9.53;75.24;97972.98;107101;1261;71205;-37
2024/04/18 00:26:56;;;;;;;7.40;4.80;;;;;;;9.52;75.36;97972.66;107193;1262;61685;-37
2024/04/18 00:29:35;;;;;;;6.60;4.40;;;;;;;9.58;75.35;97970.50;107185;1258;61214;-37
2024/04/18 00:32:09;;;;;;;7.40;4.60;;;;;;;9.64;75.10;97965.63;107208;1257;74728;-38
2024/04/18 00:34:38;;;;;;;7.00;4.60;;;;;;;9.66;75.20;97972.98;107236;1258;67716;-38
2024/04/18 00:37:05;;;;;;;7.30;4.60;;;;;;;9.63;75.21;97976.61;107208;1257;70411;-38
2024/04/18 00:39:51;;;;;;;8.80;4.90;;;;;;;9.62;75.25;97975.69;107195;1261;61681;-38
2024/04/18 00:42:37;;;;;;;7.70;5.40;;;;;;;9.60;75.49;97971.19;107062;1263;61084;-38
2024/04/18 00:45:06;;;;;;;9.40;5.00;;;;;;;9.57;75.34;97968.19;107049;1258;74779;-38
2024/04/18 00:47:45;;;;;;;7.10;4.80;;;;;;;9.61;75.34;97970.56;107060;1261;65397;-38
2024/04/18 00:50:12;;;;;;;7.10;4.90;;;;;;;9.68;75.40;97974.98;107253;1262;72666;-38
2024/04/18 00:52:40;;;;;;;5.90;4.80;;;;;;;9.69;75.37;97976.67;107030;1258;61145;-38
2024/04/18 00:55:08;;;;;;;8.90;5.10;;;;;;;9.69;75.35;97977.77;107197;1257;61234;-38
2024/04/18 00:57:35;;;;;;;8.20;4.60;;;;;;;9.69;75.20;97984.34;107079;1257;74678;-38
2024/04/18 01:00:06;;;;;;;6.50;4.60;;;;;;;9.69;75.05;97987.97;107359;1258;66792;-38
2024/04/18 01:02:51;;;;;;;7.20;5.10;;;;;;;9.70;75.03;97989.14;107192;1257;72980;-38
2024/04/18 01:05:32;;;;;;;9.30;6.90;;;;;;;9.74;74.85;97987.98;107039;1261;61221;-38
2024/04/18 01:07:59;;;;;;;14.30;8.20;;;;;;;9.79;74.92;97984.80;107249;1257;61244;-38
2024/04/18 01:10:47;;;;;;;14.00;8.50;;;;;;;9.81;75.14;97976.38;107039;1257;73467;-38
2024/04/18 01:13:14;;;;;;;16.30;9.20;;;;;;;9.80;75.06;97974.05;107191;1263;67636;-38
2024/04/18 01:16:00;;;;;;;14.70;9.00;;;;;;;9.77;75.04;97973.74;107215;1258;72717;-38
2024/04/18 01:18:28;;;;;;;13.80;8.90;;;;;;;9.74;75.11;97979.63;107178;1263;61253;-38
2024/04/18 01:21:14;;;;;;;10.70;6.70;;;;;;;9.71;75.20;97980.24;107054;1257;61341;-38
2024/04/18 01:23:41;;;;;;;9.80;6.70;;;;;;;9.74;75.13;97975.06;107115;1258;74578;-37
2024/04/18 01:26:12;;;;;;;10.80;6.60;;;;;;;9.76;74.99;97974.84;107239;1257;66831;-38
2024/04/18 01:28:39;;;;;;;10.50;6.90;;;;;;;9.75;75.36;97974.35;107168;1261;72700;-37
2024/04/18 01:31:07;;;;;;;11.90;6.80;;;;;;;9.73;75.51;97977.14;107237;1258;61180;-37
2024/04/18 01:33:34;;;;;;;11.40;7.30;;;;;;;9.71;75.49;97976.54;107189;1258;61134;-37
2024/04/18 01:36:02;;;;;;;8.70;5.60;;;;;;;9.70;75.46;97972.43;107259;1257;74762;-38
2024/04/18 01:38:50;;;;;;;8.90;5.10;;;;;;;9.72;75.24;97972.52;107179;1257;67607;-37
2024/04/18 01:41:29;;;;;;;;;;;;;;;9.71;75.28;97973.44;107213;1257;72696;-37
2024/04/18 01:44:00;;;;;;;7.00;5.20;;;;;;;9.66;75.49;97970.19;107149;1257;61253;-37
2024/04/18 01:46:46;;;;;;;6.60;4.80;;;;;;;9.60;75.54;97971.42;107119;1257;61309;-37
2024/04/18 01:49:29;;;;;;;6.80;4.40;;;;;;;9.55;75.73;97967.79;107163;1257;73345;-37
2024/04/18 01:51:56;;;;;;;9.20;4.90;;;;;;;9.52;75.88;97969.03;107156;1264;68328;-38
2024/04/18 01:54:42;;;;;;;9.50;4.70;;;;;;;9.56;75.77;97974.14;107190;1261;71787;-37
2024/04/18 01:57:09;;;;;;;7.30;4.70;;;;;;;9.58;75.63;97974.91;107283;1257;61163;-38
2024/04/18 01:59:55;;;;;;;9.00;4.70;;;;;;;9.55;75.58;97974.52;107246;1257;61113;-38
2024/04/18 02:02:26;;;;;;;5.50;4.20;;;;;;;9.51;75.65;97970.19;107203;1257;73368;-38
2024/04/18 02:05:08;;;;;;;9.90;3.90;;;;;;;9.45;75.59;97969.02;107229;1257;67964;-38
2024/04/18 02:07:43;;;;;;;6.00;3.90;;;;;;;9.37;75.35;97966.23;107169;1260;71516;-38
2024/04/18 02:10:11;;;;;;;9.50;4.30;;;;;;;9.36;75.22;97969.25;107196;1262;61115;-38
2024/04/18 02:12:57;;;;;;;7.00;3.90;;;;;;;9.39;75.49;97969.17;107194;1257;61834;-38
2024/04/18 02:15:43;;;;;;;9.00;4.30;;;;;;;9.41;75.61;97966.84;107213;1257;74661;-38
2024/04/18 02:18:14;;;;;;;6.20;3.90;;;;;;;9.39;75.38;97969.17;107145;1257;66450;-38
2024/04/18 02:20:41;;;;;;;5.90;3.80;;;;;;;9.34;75.40;97964.45;107267;1260;73172;-38
2024/04/18 02:23:24;;;;;;;6.30;3.50;;;;;;;9.30;75.53;97968.93;107211;1257;61681;-38
2024/04/18 02:25:52;;;;;;;5.60;3.20;;;;;;;9.32;75.67;97967.08;107198;1260;61234;-38
2024/04/18 02:28:19;;;;;;;4.20;3.60;;;;;;;9.37;75.65;97966.85;107262;1257;75599;-39
2024/04/18 02:30:47;;;;;;;6.90;4.00;;;;;;;9.37;75.55;97959.73;107250;1258;67903;-36
2024/04/18 02:33:15;;;;;;;6.80;3.90;;;;;;;9.35;75.67;97961.52;107249;1257;72643;-37
2024/04/18 02:35:46;;;;;;;6.90;3.50;;;;;;;9.32;75.80;97957.27;107253;1257;61128;-37
2024/04/18 02:38:33;;;;;;;7.50;3.80;;;;;;;9.27;75.89;97956.02;107213;1262;60397;-37
2024/04/18 02:41:05;;;;;;;4.80;3.20;;;;;;;9.25;76.10;97951.61;107196;1257;73443;-37
2024/04/18 02:43:49;;;;;;;6.50;3.60;;;;;;;9.31;76.15;97952.47;107235;1258;67908;-37
2024/04/18 02:46:17;;;;;;;5.70;3.60;;;;;;;9.32;76.05;97957.58;107318;1257;72674;-37
2024/04/18 02:49:03;;;;;;;4.50;3.40;;;;;;;9.29;76.17;97959.89;107239;1257;61241;-37
2024/04/18 02:51:30;;;;;;;5.10;3.70;;;;;;;9.26;76.29;97957.94;107231;1260;61112;-37
2024/04/18 02:54:13;;;;;;;5.70;3.90;;;;;;;9.24;76.52;97954.09;107255;1258;73472;-37
2024/04/18 02:56:41;;;;;;;5.50;3.50;;;;;;;9.21;76.41;97950.83;107228;1257;67899;-37
2024/04/18 02:59:11;;;;;;;5.10;3.10;;;;;;;9.22;76.33;97951.52;107181;1257;72963;-37
2024/04/18 03:01:48;;;;;;;4.30;3.10;;;;;;;9.21;76.07;97952.84;107231;1256;61225;-37
2024/04/18 03:04:16;;;;;;;3.80;3.00;;;;;;;9.15;76.28;97949.52;107211;1258;61105;-37
2024/04/18 03:06:47;;;;;;;5.80;3.30;;;;;;;9.11;76.58;97950.42;107229;1257;73417;-37
2024/04/18 03:09:15;;;;;;;7.90;3.30;;;;;;;9.11;76.89;97956.67;107254;1257;65332;-37
2024/04/18 03:11:55;;;;;;;5.40;3.40;;;;;;;9.06;76.86;97946.23;107212;1257;72997;-37
2024/04/18 03:14:41;;;;;;;5.20;2.90;;;;;;;9.18;76.72;97953.61;107230;1257;61314;-38
2024/04/18 03:17:09;;;;;;;5.10;3.40;;;;;;;9.24;76.55;97951.84;107272;1260;60085;-38
2024/04/18 03:19:55;;;;;;;4.10;3.30;;;;;;;9.22;76.55;97948.28;107121;1261;74721;-38
2024/04/18 03:22:26;;;;;;;6.70;3.70;;;;;;;9.19;76.63;97945.66;107165;1257;67754;-38
2024/04/18 03:25:00;;;;;;;6.00;3.70;;;;;;;9.18;76.95;97944.34;107077;1257;72704;-38
2024/04/18 03:27:30;;;;;;;8.00;3.40;;;;;;;9.17;76.85;97945.02;107192;1257;61285;-38
2024/04/18 03:29:58;;;;;;;4.90;3.00;;;;;;;9.19;76.53;97941.72;107207;1257;61296;-38
2024/04/18 03:32:38;;;;;;;4.40;3.20;;;;;;;9.23;76.59;97938.86;107159;1257;76623;-39
2024/04/18 03:35:06;;;;;;;5.90;3.30;;;;;;;9.22;76.48;97936.85;107294;1257;67568;-38
2024/04/18 03:37:37;;;;;;;5.90;3.40;;;;;;;9.17;76.64;97934.77;107271;1257;72884;-37
2024/04/18 03:40:24;;;;;;;6.60;2.90;;;;;;;9.10;76.85;97934.66;107201;1257;61061;-37
2024/04/18 03:43:01;;;;;;;3.40;2.80;;;;;;;9.03;77.04;97927.95;107226;1257;61174;-38
2024/04/18 03:45:28;;;;;;;8.80;3.60;;;;;;;9.06;77.08;97927.94;107180;1257;73359;-38
2024/04/18 03:48:15;;;;;;;4.00;3.00;;;;;;;9.09;77.12;97930.59;107196;1257;66341;-37
2024/04/18 03:50:43;;;;;;;5.90;2.90;;;;;;;9.06;77.35;97925.61;107178;1257;72667;-38
2024/04/18 03:53:20;;;;;;;5.00;3.10;;;;;;;9.02;77.70;97923.77;107235;1257;61305;-38
2024/04/18 03:56:08;;;;;;;5.60;3.20;;;;;;;8.97;77.94;97919.58;107189;1257;61857;-38
2024/04/18 03:58:35;;;;;;;4.70;2.60;;;;;;;8.93;78.05;97921.66;107218;1257;74658;-38
2024/04/18 04:01:03;;;;;;;3.20;2.50;;;;;;;8.94;78.08;97924.23;107189;1257;66593;-38
2024/04/18 04:03:30;;;;;;;4.80;2.80;;;;;;;8.94;78.20;97926.84;107217;1260;72750;-38
2024/04/18 04:05:58;;;;;;;4.80;2.80;;;;;;;8.92;78.58;97919.42;107314;1257;61306;-38
2024/04/18 04:08:25;;;;;;;3.90;2.70;;;;;;;8.90;78.72;97911.46;107249;1257;61106;-38
2024/04/18 04:11:11;;;;;;;3.40;2.40;;;;;;;8.89;78.75;97901.35;107181;1257;73447;-38
2024/04/18 04:13:39;;;;;;;6.70;2.50;;;;;;;8.93;78.71;97901.67;107193;1257;65334;-38
2024/04/18 04:16:19;;;;;;;5.40;2.60;;;;;;;8.98;78.75;97909.01;107242;1257;72733;-38
2024/04/18 04:18:54;;;;;;;3.60;2.50;;;;;;;8.99;78.85;97908.47;107224;1257;60251;-38
2024/04/18 04:21:41;;;;;;;5.60;2.50;;;;;;;8.97;78.73;97910.39;107257;1257;61269;-38
2024/04/18 04:24:08;;;;;;;4.20;2.50;;;;;;;8.93;78.71;97909.46;107247;1257;74615;-38
2024/04/18 04:26:49;;;;;;;3.60;2.90;;;;;;;8.90;78.74;97905.83;107231;1256;67683;-38
2024/04/18 04:29:17;;;;;;;4.80;2.30;;;;;;;8.92;78.64;97907.29;107209;1257;70400;-38
2024/04/18 04:31:44;;;;;;;4.80;2.60;;;;;;;8.95;78.70;97909.78;107186;1257;60478;-38
2024/04/18 04:34:12;;;;;;;5.30;2.60;;;;;;;8.94;78.91;97905.06;107114;1257;61237;-37
2024/04/18 04:36:39;;;;;;;4.00;2.60;;;;;;;8.92;78.86;97898.33;107146;1258;74623;-37
2024/04/18 04:39:07;;;;;;;4.10;2.40;;;;;;;8.93;79.02;97899.20;107180;1257;67087;-37
2024/04/18 04:41:39;;;;;;;3.70;2.60;;;;;;;8.99;79.02;97894.64;107242;1257;71253;-37
2024/04/18 04:44:06;;;;;;;3.50;2.20;;;;;;;9.06;78.84;97895.82;107249;1257;61353;-37
2024/04/18 04:46:50;;;;;;;2.90;2.20;;;;;;;9.08;78.90;97903.08;107290;1260;61201;-37
2024/04/18 04:49:21;;;;;;;4.40;2.60;;;;;;;9.08;79.20;97904.48;107234;1257;74671;-38
2024/04/18 04:52:05;;;;;;;3.90;2.40;;;;;;;9.10;79.30;97912.27;107255;1257;67582;-38
2024/04/18 04:54:43;;;;;;;6.10;2.30;;;;;;;9.11;79.17;97913.27;107205;1257;72723;-38
2024/04/18 04:57:11;;;;;;;4.30;2.40;;;;;;;9.16;78.96;97913.60;107211;1257;61087;-38
2024/04/18 04:59:38;;;;;;;5.80;2.80;;;;;;;9.19;79.10;97916.69;107248;1260;61154;-37
2024/04/18 05:02:06;;;;;;;3.20;2.60;;;;;;;9.16;79.35;97915.45;107245;1257;74743;-37
2024/04/18 05:04:49;;;;;;;6.90;3.30;;;;;;;9.17;79.91;97920.86;107259;1257;68093;-37
2024/04/18 05:07:37;;;;;;;6.20;2.80;;;;;;;9.20;79.87;97917.54;107200;1257;74239;-37
2024/04/18 05:10:23;;;;;;;4.30;2.60;;;;;;;9.29;79.89;97914.98;107182;1258;61139;-38
2024/04/18 05:12:51;;;;;;;6.20;2.90;;;;;;;9.34;79.78;97913.00;107222;1257;61038;-37
2024/04/18 05:15:34;;;;;;;5.60;3.00;;;;;;;9.34;79.93;97909.98;107250;1257;74648;-38
2024/04/18 05:18:02;;;;;;;4.10;2.90;;;;;;;9.34;80.04;97906.42;107242;1257;67882;-37
2024/04/18 05:20:30;;;;;;;3.80;2.80;;;;;;;9.36;79.97;97906.65;107211;1257;72665;-37
2024/04/18 05:22:58;;;;;;;3.50;2.80;;;;;;;9.44;79.81;97906.42;107155;1257;61781;-37
2024/04/18 05:25:25;;;;;;;5.70;2.80;;;;;;;9.49;79.39;97900.61;107247;1257;61291;-38
2024/04/18 05:28:20;;;;;;;5.20;3.00;;;;;;;9.47;79.30;97903.88;107210;1257;74663;-38
2024/04/18 05:31:04;;;;;;;5.20;3.20;;;;;;;9.42;79.43;97900.46;107223;1257;67697;-38
2024/04/18 05:33:32;;;;;;;5.00;2.80;;;;;;;9.41;79.49;97897.61;107219;1257;72757;-38
2024/04/18 05:36:00;;;;;;;7.00;2.90;;;;;;;9.46;79.31;97897.31;107153;1257;186193;-38
2024/04/18 05:40:35;;;;;;;5.10;2.60;;;;;;;9.47;79.19;97889.65;104177;1293;601022;-37
2024/04/18 05:43:03;;;;;;;3.30;2.70;;;;;;;9.40;79.14;97888.72;106603;1270;59414;-37
2024/04/18 05:45:47;;;;;;;4.10;2.70;;;;;;;9.33;79.11;97881.70;106596;1267;59839;-37
2024/04/18 05:48:15;;;;;;;4.90;3.00;;;;;;;9.34;79.40;97883.16;106679;1265;73109;-37
2024/04/18 05:50:42;;;;;;;5.60;2.80;;;;;;;9.39;79.23;97888.27;106739;1267;68056;-37
2024/04/18 05:53:22;;;;;;;5.70;2.30;;;;;;;9.42;79.19;97885.17;106612;1267;186947;-38
2024/04/18 05:55:52;;;;;;;4.70;2.60;;;;;;;9.41;79.23;97881.77;106785;1264;59784;-37
2024/04/18 05:58:20;;;;;;;4.60;2.90;;;;;;;9.38;79.41;97880.54;106818;1270;59531;-38
2024/04/18 06:00:53;;;;;;;4.60;2.80;;;;;;;9.34;79.59;97882.70;106773;1264;72872;-38
2024/04/18 06:03:21;;;;;;;3.90;2.40;;;;;;;9.37;79.62;97883.01;106823;1267;67732;-38
2024/04/18 06:05:49;;;;;;;3.80;2.80;;;;;;;9.42;79.46;97884.94;106838;1266;71464;-38
2024/04/18 06:08:16;;;;;;;4.00;3.00;;;;;;;9.42;79.60;97888.18;106827;1264;60156;-36
2024/04/18 06:10:45;;;;;;;4.30;2.80;;;;;;;9.40;79.63;97890.19;106847;1263;60539;-37
2024/04/18 06:13:19;;;;;;;5.90;2.90;;;;;;;9.37;79.56;97896.06;106848;1262;72659;-37
2024/04/18 06:15:47;;;;;;;3.50;2.50;;;;;;;9.42;79.56;97900.63;106841;1262;66428;-37
2024/04/18 06:18:15;;;;;;;5.20;2.80;;;;;;;9.47;79.30;97901.79;106850;1263;72396;-37
2024/04/18 06:20:46;;;;;;;3.60;2.60;;;;;;;9.46;79.62;97904.10;106821;1267;60408;-37
2024/04/18 06:23:14;;;;;;;7.80;2.80;;;;;;;9.46;79.82;97910.05;106824;1264;60456;-38
2024/04/18 06:25:42;;;;;;;4.10;2.80;;;;;;;9.45;79.83;97907.42;107356;1254;73915;-38
2024/04/18 06:28:11;;;;;;;5.00;3.00;;;;;;;9.49;79.75;97911.98;107324;1254;67337;-37
2024/04/18 06:30:39;;;;;;;7.30;3.20;;;;;;;9.53;79.57;97911.45;107333;1254;72814;-37
2024/04/18 06:33:10;;;;;;;3.60;2.20;;;;;;;9.53;79.51;97912.84;107326;1258;60517;-37
2024/04/18 06:35:38;;;;;;;4.90;2.50;;;;;;;9.48;79.54;97912.61;107323;1254;60338;-37
2024/04/18 06:38:06;;;;;;;4.40;2.40;;;;;;;9.43;79.53;97911.83;107306;1254;74025;-37
2024/04/18 06:40:34;;;;;;;4.50;2.60;;;;;;;9.39;79.65;97914.38;107355;1260;66790;-37
2024/04/18 06:43:01;;;;;;;4.70;2.70;;;;;;;9.43;80.02;97909.59;107341;1254;72786;-37
2024/04/18 06:45:29;;;;;;;4.60;2.40;;;;;;;9.45;79.93;97909.66;107255;1254;60398;-37
2024/04/18 06:47:56;;;;;;;3.90;2.60;;;;;;;9.44;79.94;97910.98;107278;1254;60084;-37
2024/04/18 06:50:26;;;;;;;3.70;2.50;;;;;;;9.43;80.36;97907.81;107211;1260;73958;-37
2024/04/18 06:52:53;;;;;;;4.40;2.40;;;;;;;9.41;80.54;97902.32;107174;1257;67791;-37
2024/04/18 06:55:22;;;;;;;4.20;2.20;;;;;;;9.45;80.30;97900.39;107239;1257;71477;-37
2024/04/18 06:57:50;;;;;;;3.50;2.10;;;;;;;9.48;80.51;97901.48;107295;1257;60117;-36
2024/04/18 07:00:18;;;;;;;6.30;2.40;;;;;;;9.47;80.81;97899.16;107219;1257;60444;-37
2024/04/18 07:02:46;;;;;;;3.40;2.40;;;;;;;9.45;80.75;97900.08;107249;1260;72714;-37
2024/04/18 07:05:32;;;;;;;3.20;1.90;;;;;;;9.46;80.67;97898.69;107265;1260;66766;-36
2024/04/18 07:08:18;;;;;;;3.10;1.90;;;;;;;9.50;80.20;97903.80;107261;1257;71555;-37
2024/04/18 07:10:46;;;;;;;2.60;2.00;;;;;;;9.51;79.75;97904.34;107239;1255;60486;-37
2024/04/18 07:13:29;;;;;;;4.10;2.20;;;;;;;9.47;79.84;97908.74;107313;1257;59323;-37
2024/04/18 07:16:03;;;;;;;6.30;2.30;;;;;;;9.41;79.70;97912.45;107228;1257;71792;-37
2024/04/18 07:19:06;;;;;;;2.80;1.90;;;;;;;9.38;80.15;97912.38;106751;1263;66963;-37
2024/04/18 07:21:53;;;;;;;3.30;2.00;;;;;;;9.42;79.92;97907.12;107216;1257;71847;-37
2024/04/18 07:24:23;;;;;;;3.10;2.00;;;;;;;9.43;79.94;97907.20;107272;1257;60414;-38
2024/04/18 07:26:51;;;;;;;2.90;2.10;;;;;;;9.39;79.61;97907.42;107228;1258;60411;-37
2024/04/18 07:29:21;;;;;;;4.60;2.30;;;;;;;9.33;79.77;97906.34;107255;1257;73131;-37
2024/04/18 07:31:49;;;;;;;3.10;2.00;;;;;;;9.31;79.95;97903.02;107250;1258;67821;-37
2024/04/18 07:34:16;;;;;;;5.60;2.10;;;;;;;9.37;80.33;97901.94;107256;1260;72871;-37
2024/04/18 07:36:47;;;;;;;3.00;2.20;;;;;;;9.46;80.45;97903.02;107250;1257;60555;-38
2024/04/18 07:39:15;;;;;;;6.30;2.30;;;;;;;9.49;80.57;97904.86;107250;1254;60097;-38
2024/04/18 07:41:43;;;;;;;3.00;2.10;;;;;;;9.48;80.59;97906.73;107292;1257;72610;-38
2024/04/18 07:44:11;;;;;;;2.10;1.70;;;;;;;9.47;80.47;97909.28;107293;1257;66857;-38
2024/04/18 07:46:39;;;;;;;4.60;2.00;;;;;;;9.49;80.13;97913.14;107274;1257;72871;-37
2024/04/18 07:49:08;;;;;;;5.30;2.10;;;;;;;9.51;80.02;97913.38;107168;1257;60472;-36
2024/04/18 07:51:37;;;;;;;5.60;2.00;;;;;;;9.51;80.22;97918.33;107185;1257;60255;-37
2024/04/18 07:54:05;;;;;;;3.50;2.10;;;;;;;9.48;80.03;97917.32;107221;1257;73925;-38
2024/04/18 07:56:33;;;;;;;3.30;1.90;;;;;;;9.46;80.03;97920.10;107153;1263;66790;-37
2024/04/18 07:59:02;;;;;;;3.70;1.60;;;;;;;9.50;80.00;97915.39;107231;1260;72783;-37
2024/04/18 08:01:30;;;;;;;1.90;1.60;;;;;;;9.52;79.83;97920.02;107234;1257;60497;-37
2024/04/18 08:04:00;;;;;;;3.40;2.00;;;;;;;9.49;80.18;97919.33;107263;1256;60549;-38
2024/04/18 08:06:48;;;;;;;2.60;1.80;;;;;;;9.44;79.78;97913.53;107223;1258;72644;-38
2024/04/18 08:09:20;;;;;;;3.70;1.70;;;;;;;9.38;79.60;97914.15;107279;1256;67474;-38
2024/04/18 08:11:52;;;;;;;4.50;1.70;;;;;;;9.37;79.59;97914.61;107250;1257;70680;-38
2024/04/18 08:14:39;;;;;;;2.50;1.70;;;;;;;9.41;79.94;97913.06;107217;1257;60504;-38
2024/04/18 08:17:12;;;;;;;3.60;1.90;;;;;;;9.44;80.01;97909.37;107298;1256;60296;-38
2024/04/18 08:19:40;;;;;;;4.00;1.70;;;;;;;9.43;79.86;97904.03;107235;1255;73913;-38
2024/04/18 08:22:07;;;;;;;3.80;1.90;;;;;;;9.45;80.38;97904.72;107314;1257;65920;-38
2024/04/18 08:24:35;;;;;;;5.80;2.00;;;;;;;9.49;79.91;97901.08;107278;1257;71805;-38
2024/04/18 08:27:06;;;;;;;1.60;1.50;;;;;;;9.53;79.81;97903.41;107263;1257;61032;-38
2024/04/18 08:29:34;;;;;;;2.80;1.80;;;;;;;9.51;79.88;97903.56;107239;1255;62200;-38
2024/04/18 08:32:02;;;;;;;3.20;1.90;;;;;;;9.49;80.04;97901.40;107246;1257;72710;-38
2024/04/18 08:34:30;;;;;;;3.10;1.60;;;;;;;9.45;80.14;97902.09;107262;1257;67857;-38
2024/04/18 08:37:00;;;;;;;;;;;;;;;9.42;79.66;97905.34;107249;1260;71515;-38
2024/04/18 08:39:28;;;;;;;2.20;1.50;;;;;;;9.42;79.92;97902.25;107329;1256;60438;-38
2024/04/18 08:41:58;;;;;;;3.20;2.20;;;;;;;9.40;80.46;97898.23;107260;1260;62173;-38
2024/04/18 08:44:26;;;;;;;3.20;1.90;;;;;;;9.35;80.26;97893.90;107241;1258;72730;-38
2024/04/18 08:46:53;;;;;;;3.00;1.70;;;;;;;9.32;80.67;97887.73;107255;1257;66727;-38
2024/04/18 08:49:21;;;;;;;2.40;1.80;;;;;;;9.35;80.29;97884.09;107162;1257;72090;-38
2024/04/18 08:51:49;;;;;;;3.90;2.00;;;;;;;9.37;79.94;97879.30;107170;1255;60543;-37
2024/04/18 08:54:16;;;;;;;3.30;1.90;;;;;;;9.32;80.07;97879.06;107183;1256;60996;-37
2024/04/18 08:56:46;;;;;;;4.10;2.00;;;;;;;9.23;79.90;97871.02;107157;1255;76089;-37
2024/04/18 08:59:14;;;;;;;2.30;1.90;;;;;;;9.24;80.37;97866.94;107227;1255;67079;-37
2024/04/18 09:01:41;;;;;;;2.50;1.90;;;;;;;9.28;80.35;97858.98;107124;1260;75122;-37
2024/04/18 09:04:09;;;;;;;3.20;1.90;;;;;;;9.32;80.70;97845.53;107261;1255;62055;-37
2024/04/18 09:06:36;;;;;;;2.40;1.80;;;;;;;9.33;80.67;97837.42;107240;1255;60414;-37
2024/04/18 09:09:08;;;;;;;3.90;1.80;;;;;;;9.32;80.18;97827.84;107240;1257;72716;-37
2024/04/18 09:11:36;;;;;;;3.10;1.80;;;;;;;9.33;80.62;97828.15;107248;1257;66497;-37
2024/04/18 09:14:08;;;;;;;3.00;1.50;;;;;;;9.39;80.81;97823.66;107168;1257;71574;-37
2024/04/18 09:16:37;;;;;;;2.80;1.80;;;;;;;9.42;79.80;97827.52;107268;1257;60405;-37
2024/04/18 09:19:05;;;;;;;3.50;2.60;;;;;;;9.37;79.56;97831.47;107319;1256;60145;-37
2024/04/18 09:21:35;;;;;;;3.80;1.90;;;;;;;9.34;79.78;97833.95;107280;1256;72704;-37
2024/04/18 09:24:05;;;;;;;2.30;1.70;;;;;;;9.31;80.01;97827.75;107309;1256;67776;-37
2024/04/18 09:26:33;;;;;;;2.90;1.70;;;;;;;9.34;79.53;97819.10;107273;1257;74854;-37
2024/04/18 09:29:00;;;;;;;3.40;1.90;;;;;;;9.36;79.68;97814.77;107267;1256;60475;-37
2024/04/18 09:31:28;;;;;;;3.30;1.60;;;;;;;9.32;79.77;97813.54;107271;1257;60397;-37
2024/04/18 09:34:10;;;;;;;3.10;1.70;;;;;;;9.26;79.58;97809.52;107235;1257;76022;-38
2024/04/18 09:36:39;;;;;;;3.00;1.70;;;;;;;9.17;79.48;97814.02;107323;1260;70192;-37
2024/04/18 09:39:06;;;;;;;2.40;1.70;;;;;;;9.12;78.74;97817.11;107246;1257;72809;-37
2024/04/18 09:41:36;;;;;;;4.90;2.00;;;;;;;9.11;78.64;97819.58;107047;1257;60420;-37
2024/04/18 09:44:04;;;;;;;3.70;2.00;;;;;;;9.05;78.78;97817.57;107147;1261;60741;-38
2024/04/18 09:46:32;;;;;;;3.10;2.00;;;;;;;8.97;78.89;97814.56;107143;1257;74673;-38
2024/04/18 09:48:59;;;;;;;4.50;2.00;;;;;;;8.93;79.19;97815.41;107232;1256;67849;-38
2024/04/18 09:51:28;;;;;;;4.60;2.70;;;;;;;8.95;78.87;97819.43;107167;1261;72858;-38
2024/04/18 09:53:55;;;;;;;3.70;1.80;;;;;;;8.97;78.63;97819.58;107268;1257;61230;-38
2024/04/18 09:56:25;;;;;;;2.30;2.00;;;;;;;8.93;78.06;97815.02;107270;1257;62294;-38
2024/04/18 09:58:54;;;;;;;8.40;6.70;;;;;;;8.86;78.11;97810.70;107214;1258;74207;-38
2024/04/18 10:01:21;;;;;;;5.20;2.90;;;;;;;8.79;77.99;97807.98;107287;1257;70174;-38
2024/04/18 10:03:49;;;;;;;4.10;2.70;;;;;;;8.75;77.90;97808.61;107213;1261;71546;-38
2024/04/18 10:06:18;;;;;;;6.70;3.00;;;;;;;8.76;77.82;97810.06;107329;1257;61224;-38
2024/04/18 10:08:50;;;;;;;3.50;1.70;;;;;;;8.70;77.76;97808.52;107275;1257;60055;-38
2024/04/18 10:11:19;;;;;;;4.30;2.40;;;;;;;8.64;77.39;97804.34;107213;1256;74487;-38
2024/04/18 10:13:46;;;;;;;4.90;2.20;;;;;;;8.60;77.59;97797.30;107271;1257;66798;-38
2024/04/18 10:16:15;;;;;;;3.20;1.90;;;;;;;8.58;77.86;97795.75;107305;1257;71973;-38
2024/04/18 10:18:45;;;;;;;4.20;2.00;;;;;;;8.62;77.77;97802.64;107214;1256;62295;-38
2024/04/18 10:21:22;;;;;;;2.70;1.60;;;;;;;8.62;77.61;97801.72;107225;1257;60240;-38
2024/04/18 10:24:05;;;;;;;2.70;1.70;;;;;;;8.57;77.41;97800.01;107242;1257;76882;-38
2024/04/18 10:26:34;;;;;;;3.10;1.90;;;;;;;8.54;77.82;97798.61;107313;1256;69111;-37
2024/04/18 10:29:02;;;;;;;7.10;2.10;;;;;;;8.53;78.12;97792.44;107319;1260;73061;-36
2024/04/18 10:31:29;;;;;;;3.90;1.90;;;;;;;8.59;78.14;97786.27;107251;1256;61250;-37
2024/04/18 10:33:57;;;;;;;2.30;1.60;;;;;;;8.65;78.01;97782.73;107251;1257;61301;-37
2024/04/18 10:36:26;;;;;;;3.50;1.60;;;;;;;8.66;78.16;97778.89;107174;1256;74893;-37
2024/04/18 10:38:53;;;;;;;2.40;1.70;;;;;;;8.62;77.98;97778.02;107262;1256;66777;-37
2024/04/18 10:41:22;;;;;;;3.30;2.00;;;;;;;8.57;78.08;97780.63;107189;1256;72815;-37
2024/04/18 10:43:49;;;;;;;2.70;2.20;;;;;;;8.60;78.39;97782.02;107376;1257;61352;-37
2024/04/18 10:46:18;;;;;;;2.60;2.00;;;;;;;8.65;78.52;97786.61;107370;1256;61193;-37
2024/04/18 10:48:50;;;;;;;5.90;2.20;;;;;;;8.66;78.83;97786.91;107263;1256;77313;-37
2024/04/18 10:51:18;;;;;;;3.00;1.90;;;;;;;8.65;78.93;97792.39;107352;1260;68090;-39
2024/04/18 10:53:46;;;;;;;3.60;1.70;;;;;;;8.63;79.11;97794.52;107331;1256;73474;-37
2024/04/18 10:56:14;;;;;;;2.60;1.30;;;;;;;8.62;79.41;97795.54;107351;1256;61788;-37
2024/04/18 10:58:42;;;;;;;2.10;1.60;;;;;;;8.62;79.19;97802.88;107243;1255;61209;-38
2024/04/18 11:01:09;;;;;;;3.00;1.70;;;;;;;8.60;79.14;97811.59;107310;1256;73516;-37
2024/04/18 11:03:37;;;;;;;2.60;1.80;;;;;;;8.56;79.62;97819.23;107259;1256;70181;-38
2024/04/18 11:06:05;;;;;;;2.40;1.70;;;;;;;8.52;79.70;97823.69;107236;1257;73102;-38
2024/04/18 11:08:32;;;;;;;3.30;1.40;;;;;;;8.49;80.09;97819.20;106463;1257;1002366;-38
2024/04/18 11:11:02;;;;;;;2.40;1.40;;;;;;;8.54;80.10;97819.14;107247;1256;62180;-38
2024/04/18 11:13:31;;;;;;;2.40;1.20;;;;;;;8.53;79.95;97811.88;107289;1256;75586;-38
2024/04/18 11:15:58;;;;;;;3.10;1.90;;;;;;;8.47;80.20;97805.55;107364;1257;66806;-38
2024/04/18 11:18:26;;;;;;;5.20;2.10;;;;;;;8.39;80.33;97792.27;107238;1257;70479;-38
2024/04/18 11:20:54;;;;;;;3.30;2.20;;;;;;;8.34;80.67;97789.31;107091;1257;63974;-38
2024/04/18 11:23:23;;;;;;;3.20;1.90;;;;;;;8.39;80.87;97788.55;107098;1256;60875;-38
2024/04/18 11:26:06;;;;;;;5.60;2.10;;;;;;;8.40;80.65;97793.73;107225;1257;76883;-38
2024/04/18 11:28:34;;;;;;;3.80;2.20;;;;;;;8.35;80.68;97791.16;107252;1256;68349;-38
2024/04/18 11:31:01;;;;;;;2.70;1.70;;;;;;;8.26;80.81;97780.27;107260;1257;73096;-38
2024/04/18 11:33:29;;;;;;;3.20;1.70;;;;;;;8.28;81.04;97786.35;107313;1256;61954;-38
2024/04/18 11:35:56;;;;;;;2.60;1.40;;;;;;;8.34;81.18;97805.90;107298;1256;62475;-38
2024/04/18 11:38:24;;;;;;;1.70;1.30;;;;;;;8.35;80.75;97816.09;107281;1256;75174;-38
2024/04/18 11:40:52;;;;;;;2.50;1.40;;;;;;;8.28;80.60;97813.89;107253;1257;70184;-38
2024/04/18 11:43:19;;;;;;;4.60;1.20;;;;;;;8.21;80.94;97812.77;107281;1257;72789;-38
2024/04/18 11:45:46;;;;;;;3.10;1.50;;;;;;;8.15;80.73;97805.97;107255;1256;60500;-38
2024/04/18 11:48:14;;;;;;;3.60;1.20;;;;;;;8.15;80.21;97800.33;107294;1260;61396;-37
2024/04/18 11:50:42;;;;;;;2.90;1.50;;;;;;;8.12;80.15;97809.90;107315;1256;72827;-37
2024/04/18 11:53:09;;;;;;;3.90;1.20;;;;;;;8.09;80.58;97811.19;107288;1260;70279;-37
2024/04/18 11:55:37;;;;;;;3.40;1.10;;;;;;;8.05;80.71;97804.48;107251;1257;72913;-37
2024/04/18 11:58:23;;;;;;;4.00;1.40;;;;;;;8.05;80.31;97806.77;107265;1257;61298;-37